PWSweather.com
Personal Weather Stations
Station Observations
WD4JKH
Forsyth, GA 31029

Forsyth, GA 31029

Lat: 33.033225, Lon: -83.927995

Elevation: 709

Station Type: Davis Vantage VUE

High Low Average
Temperature 49.5°F9.7°C 32.4°F0.2°C 39.9°F4.4°C
Dew Point 29.2°F-1.6°C 19.3°F-7.1°C 25.6°F-3.6°C
Winds 8.9 mph 14.3 kmh 1.0 mph 1.6 kmh 3.0 mph NW4.8 kmh NW
Wind Gusts 15.0 mph24.1 kmh 2.0 mph3.2 kmh 9.0 mph14.5 kmh
Humidity 82% 34% 59%
Pressure 30.33 in1027.1 mb 30.11 in1019.6 mb -
Precipitation 0.46 in11.7 mm - -
Hour Temp Dew Point Humidity Winds Wind Gusts Pressure Precip Precip Rate Daily Precip Total
12:01 AM 36.7°F2.6°C 29.2°F-1.6°C 74% 2.7 mph NW4.3 kmh NW 12.0 mph19.3 kmh 30.11 in1019.6 mb 0.00 in0.0 mm 0.00 in0.0 mm 0.46 in11.7 mm
12:06 AM 36.6°F2.6°C 29.1°F-1.6°C 74% 2.1 mph NW3.4 kmh NW 10.0 mph16.1 kmh 30.11 in1019.6 mb 0.00 in0.0 mm 0.00 in0.0 mm 0.46 in11.7 mm
12:11 AM 36.5°F2.5°C 29.0°F-1.7°C 74% 3.8 mph NW6.1 kmh NW 10.0 mph16.1 kmh 30.11 in1019.6 mb 0.00 in0.0 mm 0.00 in0.0 mm 0.46 in11.7 mm
12:16 AM 36.5°F2.5°C 29.1°F-1.6°C 74% 3.8 mph WNW6.1 kmh WNW 10.0 mph16.1 kmh 30.11 in1019.6 mb 0.00 in0.0 mm 0.00 in0.0 mm 0.46 in11.7 mm
12:21 AM 36.5°F2.5°C 29.1°F-1.6°C 74% 4.7 mph NW7.6 kmh NW 9.0 mph14.5 kmh 30.11 in1019.6 mb 0.00 in0.0 mm 0.00 in0.0 mm 0.46 in11.7 mm
12:26 AM 36.4°F2.4°C 29.3°F-1.5°C 75% 3.9 mph NW6.3 kmh NW 9.0 mph14.5 kmh 30.11 in1019.6 mb 0.00 in0.0 mm 0.00 in0.0 mm 0.46 in11.7 mm
12:31 AM 36.3°F2.4°C 29.2°F-1.6°C 75% 4.9 mph NW7.9 kmh NW 9.0 mph14.5 kmh 30.11 in1019.6 mb 0.00 in0.0 mm 0.00 in0.0 mm 0.46 in11.7 mm
12:36 AM 36.2°F2.3°C 29.1°F-1.6°C 75% 2.4 mph NW3.9 kmh NW 9.0 mph14.5 kmh 30.11 in1019.6 mb 0.00 in0.0 mm 0.00 in0.0 mm 0.46 in11.7 mm
12:41 AM 36.2°F2.3°C 29.0°F-1.7°C 75% 3.0 mph NW4.8 kmh NW 8.0 mph12.9 kmh 30.11 in1019.6 mb 0.00 in0.0 mm 0.00 in0.0 mm 0.46 in11.7 mm
12:46 AM 36.1°F2.3°C 29.0°F-1.7°C 75% 3.3 mph NW5.3 kmh NW 8.0 mph12.9 kmh 30.11 in1019.6 mb 0.00 in0.0 mm 0.00 in0.0 mm 0.46 in11.7 mm
12:51 AM 36.1°F2.3°C 29.3°F-1.5°C 76% 3.9 mph NW6.3 kmh NW 8.0 mph12.9 kmh 30.11 in1019.6 mb 0.00 in0.0 mm 0.00 in0.0 mm 0.46 in11.7 mm
12:56 AM 36.1°F2.3°C 29.0°F-1.7°C 75% 3.7 mph NW6.0 kmh NW 9.0 mph14.5 kmh 30.11 in1019.6 mb 0.00 in0.0 mm 0.00 in0.0 mm 0.46 in11.7 mm
01:01 AM 36.0°F2.2°C 29.2°F-1.6°C 76% 3.2 mph NW5.1 kmh NW 9.0 mph14.5 kmh 30.11 in1019.6 mb 0.00 in0.0 mm 0.00 in0.0 mm 0.46 in11.7 mm
01:06 AM 35.9°F2.2°C 29.1°F-1.6°C 76% 5.3 mph NW8.5 kmh NW 12.0 mph19.3 kmh 30.11 in1019.6 mb 0.00 in0.0 mm 0.00 in0.0 mm 0.00 in0.0 mm
01:11 AM 35.9°F2.2°C 29.1°F-1.6°C 76% 4.3 mph NW6.9 kmh NW 12.0 mph19.3 kmh 30.11 in1019.6 mb 0.00 in0.0 mm 0.00 in0.0 mm 0.00 in0.0 mm
01:16 AM 35.9°F2.2°C 29.1°F-1.6°C 76% 5.9 mph NW9.5 kmh NW 12.0 mph19.3 kmh 30.11 in1019.6 mb 0.00 in0.0 mm 0.00 in0.0 mm 0.00 in0.0 mm
01:21 AM 35.8°F2.1°C 29.0°F-1.7°C 76% 3.3 mph WNW5.3 kmh WNW 12.0 mph19.3 kmh 30.11 in1019.6 mb 0.00 in0.0 mm 0.00 in0.0 mm 0.00 in0.0 mm
01:26 AM 35.8°F2.1°C 29.0°F-1.7°C 76% 4.8 mph WNW7.7 kmh WNW 11.0 mph17.7 kmh 30.11 in1019.6 mb 0.00 in0.0 mm 0.00 in0.0 mm 0.00 in0.0 mm
01:31 AM 35.7°F2.1°C 28.9°F-1.7°C 76% 4.0 mph NW6.4 kmh NW 11.0 mph17.7 kmh 30.11 in1019.6 mb 0.00 in0.0 mm 0.00 in0.0 mm 0.00 in0.0 mm
01:36 AM 35.7°F2.1°C 28.9°F-1.7°C 76% 2.7 mph WNW4.3 kmh WNW 11.0 mph17.7 kmh 30.12 in1020.0 mb 0.00 in0.0 mm 0.00 in0.0 mm 0.00 in0.0 mm
01:41 AM 35.7°F2.1°C 28.9°F-1.7°C 76% 5.4 mph WNW8.7 kmh WNW 15.0 mph24.1 kmh 30.12 in1020.0 mb 0.00 in0.0 mm 0.00 in0.0 mm 0.00 in0.0 mm
01:46 AM 35.6°F2.0°C 28.8°F-1.8°C 76% 4.4 mph NW7.1 kmh NW 15.0 mph24.1 kmh 30.12 in1020.0 mb 0.00 in0.0 mm 0.00 in0.0 mm 0.00 in0.0 mm
01:51 AM 35.5°F1.9°C 29.0°F-1.7°C 77% 4.8 mph NW7.7 kmh NW 15.0 mph24.1 kmh 30.12 in1020.0 mb 0.00 in0.0 mm 0.00 in0.0 mm 0.00 in0.0 mm
01:56 AM 35.5°F1.9°C 29.0°F-1.7°C 77% 3.8 mph NW6.1 kmh NW 15.0 mph24.1 kmh 30.12 in1020.0 mb 0.00 in0.0 mm 0.00 in0.0 mm 0.00 in0.0 mm
02:01 AM 35.4°F1.9°C 28.9°F-1.7°C 77% 4.2 mph NW6.8 kmh NW 12.0 mph19.3 kmh 30.12 in1020.0 mb 0.00 in0.0 mm 0.00 in0.0 mm 0.00 in0.0 mm
02:06 AM 35.4°F1.9°C 28.9°F-1.7°C 77% 6.0 mph NW9.7 kmh NW 11.0 mph17.7 kmh 30.12 in1020.0 mb 0.00 in0.0 mm 0.00 in0.0 mm 0.00 in0.0 mm
02:11 AM 35.3°F1.8°C 28.8°F-1.8°C 77% 4.2 mph NW6.8 kmh NW 11.0 mph17.7 kmh 30.12 in1020.0 mb 0.00 in0.0 mm 0.00 in0.0 mm 0.00 in0.0 mm
02:16 AM 35.3°F1.8°C 28.8°F-1.8°C 77% 3.3 mph NW5.3 kmh NW 11.0 mph17.7 kmh 30.13 in1020.3 mb 0.00 in0.0 mm 0.00 in0.0 mm 0.00 in0.0 mm
02:21 AM 35.2°F1.8°C 28.7°F-1.8°C 77% 2.1 mph NW3.4 kmh NW 11.0 mph17.7 kmh 30.13 in1020.3 mb 0.00 in0.0 mm 0.00 in0.0 mm 0.00 in0.0 mm
02:26 AM 35.2°F1.8°C 29.1°F-1.6°C 78% 3.3 mph NW5.3 kmh NW 9.0 mph14.5 kmh 30.14 in1020.7 mb 0.00 in0.0 mm 0.00 in0.0 mm 0.00 in0.0 mm
02:31 AM 35.2°F1.8°C 29.1°F-1.6°C 78% 2.5 mph WNW4.0 kmh WNW 11.0 mph17.7 kmh 30.14 in1020.7 mb 0.00 in0.0 mm 0.00 in0.0 mm 0.00 in0.0 mm
02:36 AM 35.2°F1.8°C 29.1°F-1.6°C 78% 2.3 mph WNW3.7 kmh WNW 11.0 mph17.7 kmh 30.14 in1020.7 mb 0.00 in0.0 mm 0.00 in0.0 mm 0.00 in0.0 mm
02:41 AM 35.1°F1.7°C 29.0°F-1.7°C 78% 4.1 mph NW6.6 kmh NW 11.0 mph17.7 kmh 30.14 in1020.7 mb 0.00 in0.0 mm 0.00 in0.0 mm 0.00 in0.0 mm
02:46 AM 35.1°F1.7°C 29.0°F-1.7°C 78% 3.2 mph NW5.1 kmh NW 11.0 mph17.7 kmh 30.15 in1021.0 mb 0.00 in0.0 mm 0.00 in0.0 mm 0.00 in0.0 mm
02:51 AM 35.1°F1.7°C 29.0°F-1.7°C 78% 3.3 mph WNW5.3 kmh WNW 10.0 mph16.1 kmh 30.15 in1021.0 mb 0.00 in0.0 mm 0.00 in0.0 mm 0.00 in0.0 mm
02:56 AM 35.1°F1.7°C 29.0°F-1.7°C 78% 1.2 mph WNW1.9 kmh WNW 10.0 mph16.1 kmh 30.15 in1021.0 mb 0.00 in0.0 mm 0.00 in0.0 mm 0.00 in0.0 mm
03:01 AM 35.1°F1.7°C 29.0°F-1.7°C 78% 3.0 mph NW4.8 kmh NW 10.0 mph16.1 kmh 30.15 in1021.0 mb 0.00 in0.0 mm 0.00 in0.0 mm 0.00 in0.0 mm
03:06 AM 35.1°F1.7°C 29.0°F-1.7°C 78% 2.7 mph NW4.3 kmh NW 10.0 mph16.1 kmh 30.16 in1021.3 mb 0.00 in0.0 mm 0.00 in0.0 mm 0.00 in0.0 mm
03:11 AM 35.0°F1.7°C 28.9°F-1.7°C 78% 4.6 mph NW7.4 kmh NW 8.0 mph12.9 kmh 30.16 in1021.3 mb 0.00 in0.0 mm 0.00 in0.0 mm 0.00 in0.0 mm
03:16 AM 35.0°F1.7°C 28.8°F-1.8°C 78% 2.0 mph NW3.2 kmh NW 8.0 mph12.9 kmh 30.16 in1021.3 mb 0.00 in0.0 mm 0.00 in0.0 mm 0.00 in0.0 mm
03:21 AM 35.0°F1.7°C 28.9°F-1.7°C 78% 4.2 mph NW6.8 kmh NW 8.0 mph12.9 kmh 30.16 in1021.3 mb 0.00 in0.0 mm 0.00 in0.0 mm 0.00 in0.0 mm
03:26 AM 35.0°F1.7°C 28.9°F-1.7°C 78% 2.5 mph NW4.0 kmh NW 8.0 mph12.9 kmh 30.16 in1021.3 mb 0.00 in0.0 mm 0.00 in0.0 mm 0.00 in0.0 mm
03:31 AM 35.0°F1.7°C 28.8°F-1.8°C 78% 3.1 mph NW5.0 kmh NW 8.0 mph12.9 kmh 30.16 in1021.3 mb 0.00 in0.0 mm 0.00 in0.0 mm 0.00 in0.0 mm
03:36 AM 34.9°F1.6°C 29.0°F-1.7°C 79% 3.9 mph NW6.3 kmh NW 8.0 mph12.9 kmh 30.17 in1021.7 mb 0.00 in0.0 mm 0.00 in0.0 mm 0.00 in0.0 mm
03:41 AM 34.9°F1.6°C 29.1°F-1.6°C 79% 3.2 mph NW5.1 kmh NW 8.0 mph12.9 kmh 30.17 in1021.7 mb 0.00 in0.0 mm 0.00 in0.0 mm 0.00 in0.0 mm
03:46 AM 34.9°F1.6°C 29.1°F-1.6°C 79% 2.9 mph NW4.7 kmh NW 9.0 mph14.5 kmh 30.17 in1021.7 mb 0.00 in0.0 mm 0.00 in0.0 mm 0.00 in0.0 mm
03:51 AM 34.8°F1.6°C 29.0°F-1.7°C 79% 1.9 mph WNW3.1 kmh WNW 9.0 mph14.5 kmh 30.17 in1021.7 mb 0.00 in0.0 mm 0.00 in0.0 mm 0.00 in0.0 mm
03:56 AM 34.7°F1.5°C 28.9°F-1.7°C 79% 1.8 mph WNW2.9 kmh WNW 9.0 mph14.5 kmh 30.17 in1021.7 mb 0.00 in0.0 mm 0.00 in0.0 mm 0.00 in0.0 mm
04:00 AM 34.5°F1.4°C 28.7°F-1.8°C 79% 2.5 mph WNW4.0 kmh WNW 9.0 mph14.5 kmh 30.17 in1021.7 mb 0.00 in0.0 mm 0.00 in0.0 mm 0.00 in0.0 mm
04:05 AM 34.5°F1.4°C 29.0°F-1.7°C 80% 1.7 mph NW2.7 kmh NW 7.0 mph11.3 kmh 30.17 in1021.7 mb 0.00 in0.0 mm 0.00 in0.0 mm 0.00 in0.0 mm
04:10 AM 34.4°F1.3°C 28.9°F-1.7°C 80% 2.2 mph WNW3.5 kmh WNW 7.0 mph11.3 kmh 30.17 in1021.7 mb 0.00 in0.0 mm 0.00 in0.0 mm 0.00 in0.0 mm
04:15 AM 34.4°F1.3°C 28.9°F-1.7°C 80% 2.0 mph WNW3.2 kmh WNW 7.0 mph11.3 kmh 30.18 in1022.0 mb 0.00 in0.0 mm 0.00 in0.0 mm 0.00 in0.0 mm
04:20 AM 34.4°F1.3°C 28.9°F-1.7°C 80% 2.8 mph WNW4.5 kmh WNW 6.0 mph9.7 kmh 30.18 in1022.0 mb 0.00 in0.0 mm 0.00 in0.0 mm 0.00 in0.0 mm
04:25 AM 34.4°F1.3°C 28.9°F-1.7°C 80% 1.9 mph WNW3.1 kmh WNW 8.0 mph12.9 kmh 30.19 in1022.4 mb 0.00 in0.0 mm 0.00 in0.0 mm 0.00 in0.0 mm
04:30 AM 34.3°F1.3°C 28.8°F-1.8°C 80% 2.9 mph NW4.7 kmh NW 8.0 mph12.9 kmh 30.19 in1022.4 mb 0.00 in0.0 mm 0.00 in0.0 mm 0.00 in0.0 mm
04:35 AM 34.3°F1.3°C 28.8°F-1.8°C 80% 2.5 mph NW4.0 kmh NW 8.0 mph12.9 kmh 30.19 in1022.4 mb 0.00 in0.0 mm 0.00 in0.0 mm 0.00 in0.0 mm
04:40 AM 34.2°F1.2°C 29.0°F-1.7°C 81% 2.1 mph NW3.4 kmh NW 7.0 mph11.3 kmh 30.19 in1022.4 mb 0.00 in0.0 mm 0.00 in0.0 mm 0.00 in0.0 mm
04:45 AM 34.1°F1.2°C 28.9°F-1.7°C 81% 1.3 mph WNW2.1 kmh WNW 7.0 mph11.3 kmh 30.19 in1022.4 mb 0.00 in0.0 mm 0.00 in0.0 mm 0.00 in0.0 mm
04:50 AM 34.0°F1.1°C 28.8°F-1.8°C 81% 2.3 mph NW3.7 kmh NW 7.0 mph11.3 kmh 30.19 in1022.4 mb 0.00 in0.0 mm 0.00 in0.0 mm 0.00 in0.0 mm
04:55 AM 33.9°F1.1°C 28.7°F-1.8°C 81% 2.2 mph WNW3.5 kmh WNW 5.0 mph8.0 kmh 30.19 in1022.4 mb 0.00 in0.0 mm 0.00 in0.0 mm 0.00 in0.0 mm
05:00 AM 33.7°F0.9°C 28.8°F-1.8°C 82% 1.8 mph WNW2.9 kmh WNW 5.0 mph8.0 kmh 30.19 in1022.4 mb 0.00 in0.0 mm 0.00 in0.0 mm 0.00 in0.0 mm
05:05 AM 33.7°F0.9°C 28.8°F-1.8°C 82% 2.5 mph WNW4.0 kmh WNW 5.0 mph8.0 kmh 30.20 in1022.7 mb 0.00 in0.0 mm 0.00 in0.0 mm 0.00 in0.0 mm
05:10 AM 33.6°F0.9°C 28.7°F-1.8°C 82% 2.1 mph WNW3.4 kmh WNW 5.0 mph8.0 kmh 30.20 in1022.7 mb 0.00 in0.0 mm 0.00 in0.0 mm 0.00 in0.0 mm
05:15 AM 33.5°F0.8°C 28.6°F-1.9°C 82% 2.2 mph WNW3.5 kmh WNW 5.0 mph8.0 kmh 30.20 in1022.7 mb 0.00 in0.0 mm 0.00 in0.0 mm 0.00 in0.0 mm
05:20 AM 33.5°F0.8°C 28.6°F-1.9°C 82% 2.6 mph WNW4.2 kmh WNW 6.0 mph9.7 kmh 30.20 in1022.7 mb 0.00 in0.0 mm 0.00 in0.0 mm 0.00 in0.0 mm
05:25 AM 33.5°F0.8°C 28.6°F-1.9°C 82% 2.6 mph WNW4.2 kmh WNW 7.0 mph11.3 kmh 30.20 in1022.7 mb 0.00 in0.0 mm 0.00 in0.0 mm 0.00 in0.0 mm
05:30 AM 33.6°F0.9°C 28.7°F-1.8°C 82% 3.6 mph WNW5.8 kmh WNW 8.0 mph12.9 kmh 30.20 in1022.7 mb 0.00 in0.0 mm 0.00 in0.0 mm 0.00 in0.0 mm
05:35 AM 33.5°F0.8°C 28.6°F-1.9°C 82% 2.5 mph WNW4.0 kmh WNW 8.0 mph12.9 kmh 30.20 in1022.7 mb 0.00 in0.0 mm 0.00 in0.0 mm 0.00 in0.0 mm
05:40 AM 33.5°F0.8°C 28.6°F-1.9°C 82% 3.3 mph WNW5.3 kmh WNW 8.0 mph12.9 kmh 30.21 in1023.0 mb 0.00 in0.0 mm 0.00 in0.0 mm 0.00 in0.0 mm
05:45 AM 33.5°F0.8°C 28.6°F-1.9°C 82% 2.9 mph NW4.7 kmh NW 8.0 mph12.9 kmh 30.21 in1023.0 mb 0.00 in0.0 mm 0.00 in0.0 mm 0.00 in0.0 mm
05:50 AM 33.5°F0.8°C 28.6°F-1.9°C 82% 3.4 mph WNW5.5 kmh WNW 9.0 mph14.5 kmh 30.21 in1023.0 mb 0.00 in0.0 mm 0.00 in0.0 mm 0.00 in0.0 mm
05:55 AM 33.6°F0.9°C 28.7°F-1.8°C 82% 3.8 mph WNW6.1 kmh WNW 9.0 mph14.5 kmh 30.21 in1023.0 mb 0.00 in0.0 mm 0.00 in0.0 mm 0.00 in0.0 mm
06:00 AM 33.6°F0.9°C 28.7°F-1.8°C 82% 3.5 mph WNW5.6 kmh WNW 9.0 mph14.5 kmh 30.21 in1023.0 mb 0.00 in0.0 mm 0.00 in0.0 mm 0.00 in0.0 mm
06:05 AM 33.5°F0.8°C 28.6°F-1.9°C 82% 2.4 mph NW3.9 kmh NW 9.0 mph14.5 kmh 30.21 in1023.0 mb 0.00 in0.0 mm 0.00 in0.0 mm 0.00 in0.0 mm
06:10 AM 33.5°F0.8°C 28.6°F-1.9°C 82% 2.9 mph WNW4.7 kmh WNW 9.0 mph14.5 kmh 30.21 in1023.0 mb 0.00 in0.0 mm 0.00 in0.0 mm 0.00 in0.0 mm
06:15 AM 33.5°F0.8°C 28.6°F-1.9°C 82% 3.0 mph WNW4.8 kmh WNW 9.0 mph14.5 kmh 30.21 in1023.0 mb 0.00 in0.0 mm 0.00 in0.0 mm 0.00 in0.0 mm
06:20 AM 33.5°F0.8°C 28.6°F-1.9°C 82% 3.1 mph WNW5.0 kmh WNW 9.0 mph14.5 kmh 30.21 in1023.0 mb 0.00 in0.0 mm 0.00 in0.0 mm 0.00 in0.0 mm
06:25 AM 33.5°F0.8°C 28.3°F-2.1°C 81% 3.5 mph WNW5.6 kmh WNW 9.0 mph14.5 kmh 30.21 in1023.0 mb 0.00 in0.0 mm 0.00 in0.0 mm 0.00 in0.0 mm
06:30 AM 33.4°F0.8°C 28.2°F-2.1°C 81% 2.4 mph WNW3.9 kmh WNW 9.0 mph14.5 kmh 30.22 in1023.4 mb 0.00 in0.0 mm 0.00 in0.0 mm 0.00 in0.0 mm
06:35 AM 33.3°F0.7°C 28.1°F-2.2°C 81% 3.4 mph WNW5.5 kmh WNW 9.0 mph14.5 kmh 30.21 in1023.0 mb 0.00 in0.0 mm 0.00 in0.0 mm 0.00 in0.0 mm
06:40 AM 33.2°F0.7°C 28.3°F-2.1°C 82% 2.6 mph WNW4.2 kmh WNW 9.0 mph14.5 kmh 30.21 in1023.0 mb 0.00 in0.0 mm 0.00 in0.0 mm 0.00 in0.0 mm
06:45 AM 33.1°F0.6°C 28.2°F-2.1°C 82% 2.3 mph WNW3.7 kmh WNW 8.0 mph12.9 kmh 30.22 in1023.4 mb 0.00 in0.0 mm 0.00 in0.0 mm 0.00 in0.0 mm
06:50 AM 33.1°F0.6°C 28.2°F-2.1°C 82% 3.4 mph NW5.5 kmh NW 8.0 mph12.9 kmh 30.22 in1023.4 mb 0.00 in0.0 mm 0.00 in0.0 mm 0.00 in0.0 mm
06:55 AM 33.0°F0.6°C 28.1°F-2.2°C 82% 3.3 mph WNW5.3 kmh WNW 8.0 mph12.9 kmh 30.22 in1023.4 mb 0.00 in0.0 mm 0.00 in0.0 mm 0.00 in0.0 mm
07:00 AM 32.9°F0.5°C 28.0°F-2.2°C 82% 3.2 mph WNW5.1 kmh WNW 8.0 mph12.9 kmh 30.22 in1023.4 mb 0.00 in0.0 mm 0.00 in0.0 mm 0.00 in0.0 mm
07:05 AM 32.9°F0.5°C 28.0°F-2.2°C 82% 3.3 mph NW5.3 kmh NW 8.0 mph12.9 kmh 30.22 in1023.4 mb 0.00 in0.0 mm 0.00 in0.0 mm 0.00 in0.0 mm
07:10 AM 32.9°F0.5°C 28.0°F-2.2°C 82% 3.0 mph WNW4.8 kmh WNW 9.0 mph14.5 kmh 30.23 in1023.7 mb 0.00 in0.0 mm 0.00 in0.0 mm 0.00 in0.0 mm
07:15 AM 32.9°F0.5°C 28.0°F-2.2°C 82% 4.9 mph NW7.9 kmh NW 9.0 mph14.5 kmh 30.22 in1023.4 mb 0.00 in0.0 mm 0.00 in0.0 mm 0.00 in0.0 mm
07:20 AM 32.8°F0.4°C 27.9°F-2.3°C 82% 3.0 mph WNW4.8 kmh WNW 9.0 mph14.5 kmh 30.23 in1023.7 mb 0.00 in0.0 mm 0.00 in0.0 mm 0.00 in0.0 mm
07:25 AM 32.7°F0.4°C 27.8°F-2.3°C 82% 3.3 mph WNW5.3 kmh WNW 9.0 mph14.5 kmh 30.23 in1023.7 mb 0.00 in0.0 mm 0.00 in0.0 mm 0.00 in0.0 mm
07:30 AM 32.6°F0.3°C 27.7°F-2.4°C 82% 2.3 mph NW3.7 kmh NW 8.0 mph12.9 kmh 30.23 in1023.7 mb 0.00 in0.0 mm 0.00 in0.0 mm 0.00 in0.0 mm
07:35 AM 32.7°F0.4°C 27.8°F-2.3°C 82% 4.1 mph NW6.6 kmh NW 9.0 mph14.5 kmh 30.24 in1024.0 mb 0.00 in0.0 mm 0.00 in0.0 mm 0.00 in0.0 mm
07:40 AM 32.6°F0.3°C 27.7°F-2.4°C 82% 3.7 mph NW6.0 kmh NW 9.0 mph14.5 kmh 30.24 in1024.0 mb 0.00 in0.0 mm 0.00 in0.0 mm 0.00 in0.0 mm
07:45 AM 32.5°F0.3°C 27.6°F-2.4°C 82% 2.9 mph NW4.7 kmh NW 9.0 mph14.5 kmh 30.24 in1024.0 mb 0.00 in0.0 mm 0.00 in0.0 mm 0.00 in0.0 mm
07:50 AM 32.5°F0.3°C 27.6°F-2.4°C 82% 3.0 mph NW4.8 kmh NW 9.0 mph14.5 kmh 30.24 in1024.0 mb 0.00 in0.0 mm 0.00 in0.0 mm 0.00 in0.0 mm
07:55 AM 32.5°F0.3°C 27.6°F-2.4°C 82% 5.4 mph NW8.7 kmh NW 10.0 mph16.1 kmh 30.24 in1024.0 mb 0.00 in0.0 mm 0.00 in0.0 mm 0.00 in0.0 mm
08:00 AM 32.5°F0.3°C 27.6°F-2.4°C 82% 3.5 mph NW5.6 kmh NW 10.0 mph16.1 kmh 30.25 in1024.4 mb 0.00 in0.0 mm 0.00 in0.0 mm 0.00 in0.0 mm
08:05 AM 32.5°F0.3°C 27.6°F-2.4°C 82% 2.8 mph NW4.5 kmh NW 12.0 mph19.3 kmh 30.25 in1024.4 mb 0.00 in0.0 mm 0.00 in0.0 mm 0.00 in0.0 mm
08:10 AM 32.4°F0.2°C 27.5°F-2.5°C 82% 4.7 mph NW7.6 kmh NW 12.0 mph19.3 kmh 30.25 in1024.4 mb 0.00 in0.0 mm 0.00 in0.0 mm 0.00 in0.0 mm
08:15 AM 32.5°F0.3°C 27.3°F-2.6°C 81% 4.8 mph NW7.7 kmh NW 12.0 mph19.3 kmh 30.25 in1024.4 mb 0.00 in0.0 mm 0.00 in0.0 mm 0.00 in0.0 mm
08:20 AM 32.5°F0.3°C 27.3°F-2.6°C 81% 3.9 mph NW6.3 kmh NW 12.0 mph19.3 kmh 30.26 in1024.7 mb 0.00 in0.0 mm 0.00 in0.0 mm 0.00 in0.0 mm
08:25 AM 32.4°F0.2°C 27.2°F-2.7°C 81% 4.1 mph NW6.6 kmh NW 12.0 mph19.3 kmh 30.26 in1024.7 mb 0.00 in0.0 mm 0.00 in0.0 mm 0.00 in0.0 mm
08:30 AM 32.4°F0.2°C 27.2°F-2.7°C 81% 4.8 mph NW7.7 kmh NW 12.0 mph19.3 kmh 30.26 in1024.7 mb 0.00 in0.0 mm 0.00 in0.0 mm 0.00 in0.0 mm
08:35 AM 32.4°F0.2°C 27.2°F-2.7°C 81% 3.9 mph WNW6.3 kmh WNW 10.0 mph16.1 kmh 30.26 in1024.7 mb 0.00 in0.0 mm 0.00 in0.0 mm 0.00 in0.0 mm
08:40 AM 32.5°F0.3°C 27.3°F-2.6°C 81% 3.8 mph NW6.1 kmh NW 10.0 mph16.1 kmh 30.26 in1024.7 mb 0.00 in0.0 mm 0.00 in0.0 mm 0.00 in0.0 mm
08:45 AM 32.6°F0.3°C 27.1°F-2.7°C 80% 3.8 mph NW6.1 kmh NW 10.0 mph16.1 kmh 30.26 in1024.7 mb 0.00 in0.0 mm 0.00 in0.0 mm 0.00 in0.0 mm
08:50 AM 32.7°F0.4°C 27.2°F-2.7°C 80% 2.4 mph NW3.9 kmh NW 10.0 mph16.1 kmh 30.26 in1024.7 mb 0.00 in0.0 mm 0.00 in0.0 mm 0.00 in0.0 mm
08:55 AM 32.8°F0.4°C 27.3°F-2.6°C 80% 2.2 mph WNW3.5 kmh WNW 10.0 mph16.1 kmh 30.26 in1024.7 mb 0.00 in0.0 mm 0.00 in0.0 mm 0.00 in0.0 mm
08:59 AM 33.0°F0.6°C 27.2°F-2.7°C 79% 3.5 mph NW5.6 kmh NW 11.0 mph17.7 kmh 30.26 in1024.7 mb 0.00 in0.0 mm 0.00 in0.0 mm 0.00 in0.0 mm
09:04 AM 33.1°F0.6°C 27.3°F-2.6°C 79% 2.1 mph NW3.4 kmh NW 11.0 mph17.7 kmh 30.27 in1025.1 mb 0.00 in0.0 mm 0.00 in0.0 mm 0.00 in0.0 mm
09:09 AM 33.2°F0.7°C 27.4°F-2.6°C 79% 2.9 mph NW4.7 kmh NW 11.0 mph17.7 kmh 30.27 in1025.1 mb 0.00 in0.0 mm 0.00 in0.0 mm 0.00 in0.0 mm
09:14 AM 33.2°F0.7°C 27.4°F-2.6°C 79% 3.6 mph NW5.8 kmh NW 11.0 mph17.7 kmh 30.27 in1025.1 mb 0.00 in0.0 mm 0.00 in0.0 mm 0.00 in0.0 mm
09:19 AM 33.4°F0.8°C 27.3°F-2.6°C 78% 3.7 mph NW6.0 kmh NW 11.0 mph17.7 kmh 30.27 in1025.1 mb 0.00 in0.0 mm 0.00 in0.0 mm 0.00 in0.0 mm
09:24 AM 33.6°F0.9°C 27.5°F-2.5°C 78% 2.7 mph NW4.3 kmh NW 11.0 mph17.7 kmh 30.27 in1025.1 mb 0.00 in0.0 mm 0.00 in0.0 mm 0.00 in0.0 mm
09:29 AM 33.8°F1.0°C 27.7°F-2.4°C 78% 2.8 mph NW4.5 kmh NW 11.0 mph17.7 kmh 30.27 in1025.1 mb 0.00 in0.0 mm 0.00 in0.0 mm 0.00 in0.0 mm
09:34 AM 33.9°F1.1°C 27.5°F-2.5°C 77% 4.1 mph NW6.6 kmh NW 12.0 mph19.3 kmh 30.27 in1025.1 mb 0.00 in0.0 mm 0.00 in0.0 mm 0.00 in0.0 mm
09:39 AM 34.0°F1.1°C 27.2°F-2.7°C 76% 4.5 mph NW7.2 kmh NW 12.0 mph19.3 kmh 30.27 in1025.1 mb 0.00 in0.0 mm 0.00 in0.0 mm 0.00 in0.0 mm
09:44 AM 34.2°F1.2°C 27.4°F-2.6°C 76% 5.9 mph NW9.5 kmh NW 12.0 mph19.3 kmh 30.28 in1025.4 mb 0.00 in0.0 mm 0.00 in0.0 mm 0.00 in0.0 mm
09:49 AM 34.3°F1.3°C 27.6°F-2.4°C 76% 5.5 mph NW8.9 kmh NW 12.0 mph19.3 kmh 30.28 in1025.4 mb 0.00 in0.0 mm 0.00 in0.0 mm 0.00 in0.0 mm
09:54 AM 34.5°F1.4°C 27.4°F-2.6°C 75% 5.4 mph NW8.7 kmh NW 12.0 mph19.3 kmh 30.28 in1025.4 mb 0.00 in0.0 mm 0.00 in0.0 mm 0.00 in0.0 mm
09:59 AM 34.7°F1.5°C 27.6°F-2.4°C 75% 6.0 mph NW9.7 kmh NW 13.0 mph20.9 kmh 30.28 in1025.4 mb 0.00 in0.0 mm 0.00 in0.0 mm 0.00 in0.0 mm
10:04 AM 34.9°F1.6°C 27.8°F-2.3°C 75% 3.4 mph NW5.5 kmh NW 13.0 mph20.9 kmh 30.28 in1025.4 mb 0.00 in0.0 mm 0.00 in0.0 mm 0.00 in0.0 mm
10:09 AM 35.0°F1.7°C 27.9°F-2.3°C 75% 3.0 mph NNW4.8 kmh NNW 13.0 mph20.9 kmh 30.28 in1025.4 mb 0.00 in0.0 mm 0.00 in0.0 mm 0.00 in0.0 mm
10:14 AM 35.3°F1.8°C 28.2°F-2.1°C 75% 2.0 mph NW3.2 kmh NW 13.0 mph20.9 kmh 30.28 in1025.4 mb 0.00 in0.0 mm 0.00 in0.0 mm 0.00 in0.0 mm
10:19 AM 35.6°F2.0°C 28.1°F-2.2°C 74% 2.0 mph NW3.2 kmh NW 11.0 mph17.7 kmh 30.28 in1025.4 mb 0.00 in0.0 mm 0.00 in0.0 mm 0.00 in0.0 mm
10:24 AM 36.0°F2.2°C 28.2°F-2.1°C 73% 3.2 mph NW5.1 kmh NW 11.0 mph17.7 kmh 30.28 in1025.4 mb 0.00 in0.0 mm 0.00 in0.0 mm 0.00 in0.0 mm
10:29 AM 35.8°F2.1°C 27.7°F-2.4°C 72% 5.8 mph NW9.3 kmh NW 12.0 mph19.3 kmh 30.29 in1025.7 mb 0.00 in0.0 mm 0.00 in0.0 mm 0.00 in0.0 mm
10:34 AM 36.1°F2.3°C 28.3°F-2.1°C 73% 2.8 mph NW4.5 kmh NW 12.0 mph19.3 kmh 30.29 in1025.7 mb 0.00 in0.0 mm 0.00 in0.0 mm 0.00 in0.0 mm
10:39 AM 36.3°F2.4°C 27.9°F-2.3°C 71% 7.7 mph NW12.4 kmh NW 14.0 mph22.5 kmh 30.29 in1025.7 mb 0.00 in0.0 mm 0.00 in0.0 mm 0.00 in0.0 mm
10:44 AM 36.6°F2.6°C 28.2°F-2.1°C 71% 3.2 mph NW5.1 kmh NW 14.0 mph22.5 kmh 30.30 in1026.1 mb 0.00 in0.0 mm 0.00 in0.0 mm 0.00 in0.0 mm
10:49 AM 36.8°F2.7°C 28.0°F-2.2°C 70% 4.3 mph NW6.9 kmh NW 14.0 mph22.5 kmh 30.29 in1025.7 mb 0.00 in0.0 mm 0.00 in0.0 mm 0.00 in0.0 mm
10:54 AM 37.2°F2.9°C 28.0°F-2.2°C 69% 2.8 mph NW4.5 kmh NW 14.0 mph22.5 kmh 30.30 in1026.1 mb 0.00 in0.0 mm 0.00 in0.0 mm 0.00 in0.0 mm
10:59 AM 37.3°F2.9°C 28.1°F-2.2°C 69% 6.4 mph NW10.3 kmh NW 11.0 mph17.7 kmh 30.30 in1026.1 mb 0.00 in0.0 mm 0.00 in0.0 mm 0.00 in0.0 mm
11:04 AM 37.6°F3.1°C 28.4°F-2.0°C 69% 2.5 mph NW4.0 kmh NW 11.0 mph17.7 kmh 30.30 in1026.1 mb 0.00 in0.0 mm 0.00 in0.0 mm 0.00 in0.0 mm
11:09 AM 37.9°F3.3°C 28.0°F-2.2°C 67% 6.4 mph NNW10.3 kmh NNW 12.0 mph19.3 kmh 30.30 in1026.1 mb 0.00 in0.0 mm 0.00 in0.0 mm 0.00 in0.0 mm
11:14 AM 38.0°F3.3°C 27.7°F-2.4°C 66% 4.9 mph NW7.9 kmh NW 12.0 mph19.3 kmh 30.30 in1026.1 mb 0.00 in0.0 mm 0.00 in0.0 mm 0.00 in0.0 mm
11:19 AM 38.2°F3.4°C 27.8°F-2.3°C 66% 4.3 mph NW6.9 kmh NW 13.0 mph20.9 kmh 30.30 in1026.1 mb 0.00 in0.0 mm 0.00 in0.0 mm 0.00 in0.0 mm
11:24 AM 38.5°F3.6°C 28.6°F-1.9°C 67% 3.5 mph NW5.6 kmh NW 13.0 mph20.9 kmh 30.31 in1026.4 mb 0.00 in0.0 mm 0.00 in0.0 mm 0.00 in0.0 mm
11:29 AM 38.8°F3.8°C 28.1°F-2.2°C 65% 2.7 mph NW4.3 kmh NW 13.0 mph20.9 kmh 30.31 in1026.4 mb 0.00 in0.0 mm 0.00 in0.0 mm 0.00 in0.0 mm
11:34 AM 39.0°F3.9°C 28.3°F-2.1°C 65% 4.2 mph NW6.8 kmh NW 12.0 mph19.3 kmh 30.31 in1026.4 mb 0.00 in0.0 mm 0.00 in0.0 mm 0.00 in0.0 mm
11:39 AM 39.4°F4.1°C 27.8°F-2.3°C 63% 4.0 mph NW6.4 kmh NW 10.0 mph16.1 kmh 30.31 in1026.4 mb 0.00 in0.0 mm 0.00 in0.0 mm 0.00 in0.0 mm
11:44 AM 39.5°F4.2°C 27.9°F-2.3°C 63% 2.6 mph NNW4.2 kmh NNW 10.0 mph16.1 kmh 30.32 in1026.8 mb 0.00 in0.0 mm 0.00 in0.0 mm 0.00 in0.0 mm
11:49 AM 39.8°F4.3°C 27.9°F-2.3°C 62% 4.5 mph N7.2 kmh N 10.0 mph16.1 kmh 30.32 in1026.8 mb 0.00 in0.0 mm 0.00 in0.0 mm 0.00 in0.0 mm
11:54 AM 40.0°F4.4°C 27.7°F-2.4°C 61% 1.5 mph N2.4 kmh N 10.0 mph16.1 kmh 30.31 in1026.4 mb 0.00 in0.0 mm 0.00 in0.0 mm 0.00 in0.0 mm
11:59 AM 40.6°F4.8°C 28.7°F-1.8°C 62% 2.5 mph NNW4.0 kmh NNW 9.0 mph14.5 kmh 30.32 in1026.8 mb 0.00 in0.0 mm 0.00 in0.0 mm 0.00 in0.0 mm
12:04 PM 40.8°F4.9°C 28.0°F-2.2°C 60% 3.3 mph NW5.3 kmh NW 9.0 mph14.5 kmh 30.32 in1026.8 mb 0.00 in0.0 mm 0.00 in0.0 mm 0.00 in0.0 mm
12:09 PM 40.9°F4.9°C 27.7°F-2.4°C 59% 4.5 mph NW7.2 kmh NW 10.0 mph16.1 kmh 30.32 in1026.8 mb 0.00 in0.0 mm 0.00 in0.0 mm 0.00 in0.0 mm
12:14 PM 41.3°F5.2°C 28.1°F-2.2°C 59% 4.0 mph WNW6.4 kmh WNW 10.0 mph16.1 kmh 30.32 in1026.8 mb 0.00 in0.0 mm 0.00 in0.0 mm 0.00 in0.0 mm
12:19 PM 41.7°F5.4°C 28.9°F-1.7°C 60% 2.0 mph NNW3.2 kmh NNW 10.0 mph16.1 kmh 30.31 in1026.4 mb 0.00 in0.0 mm 0.00 in0.0 mm 0.00 in0.0 mm
12:24 PM 41.9°F5.5°C 28.2°F-2.1°C 58% 3.6 mph NW5.8 kmh NW 10.0 mph16.1 kmh 30.32 in1026.8 mb 0.00 in0.0 mm 0.00 in0.0 mm 0.00 in0.0 mm
12:29 PM 41.8°F5.4°C 27.7°F-2.4°C 57% 4.1 mph NW6.6 kmh NW 9.0 mph14.5 kmh 30.31 in1026.4 mb 0.00 in0.0 mm 0.00 in0.0 mm 0.00 in0.0 mm
12:34 PM 41.9°F5.5°C 27.8°F-2.3°C 57% 2.2 mph NW3.5 kmh NW 9.0 mph14.5 kmh 30.32 in1026.8 mb 0.00 in0.0 mm 0.00 in0.0 mm 0.00 in0.0 mm
12:39 PM 42.2°F5.7°C 26.7°F-2.9°C 54% 4.9 mph N7.9 kmh N 10.0 mph16.1 kmh 30.31 in1026.4 mb 0.00 in0.0 mm 0.00 in0.0 mm 0.00 in0.0 mm
12:44 PM 42.4°F5.8°C 27.4°F-2.6°C 55% 3.0 mph N4.8 kmh N 11.0 mph17.7 kmh 30.32 in1026.8 mb 0.00 in0.0 mm 0.00 in0.0 mm 0.00 in0.0 mm
12:49 PM 42.9°F6.1°C 26.9°F-2.8°C 53% 5.1 mph WNW8.2 kmh WNW 11.0 mph17.7 kmh 30.32 in1026.8 mb 0.00 in0.0 mm 0.00 in0.0 mm 0.00 in0.0 mm
12:54 PM 43.1°F6.2°C 27.6°F-2.4°C 54% 4.9 mph NW7.9 kmh NW 11.0 mph17.7 kmh 30.32 in1026.8 mb 0.00 in0.0 mm 0.00 in0.0 mm 0.00 in0.0 mm
12:59 PM 43.0°F6.1°C 26.6°F-3.0°C 52% 4.2 mph NNW6.8 kmh NNW 11.0 mph17.7 kmh 30.31 in1026.4 mb 0.00 in0.0 mm 0.00 in0.0 mm 0.00 in0.0 mm
01:04 PM 43.2°F6.2°C 27.7°F-2.4°C 54% 3.6 mph WNW5.8 kmh WNW 11.0 mph17.7 kmh 30.31 in1026.4 mb 0.00 in0.0 mm 0.00 in0.0 mm 0.00 in0.0 mm
01:09 PM 43.5°F6.4°C 27.5°F-2.5°C 53% 2.7 mph NW4.3 kmh NW 11.0 mph17.7 kmh 30.30 in1026.1 mb 0.00 in0.0 mm 0.00 in0.0 mm 0.00 in0.0 mm
01:14 PM 43.8°F6.6°C 28.2°F-2.1°C 54% 2.9 mph NNW4.7 kmh NNW 11.0 mph17.7 kmh 30.30 in1026.1 mb 0.00 in0.0 mm 0.00 in0.0 mm 0.00 in0.0 mm
01:19 PM 44.1°F6.7°C 27.6°F-2.4°C 52% 4.8 mph WNW7.7 kmh WNW 9.0 mph14.5 kmh 30.30 in1026.1 mb 0.00 in0.0 mm 0.00 in0.0 mm 0.00 in0.0 mm
01:24 PM 44.3°F6.8°C 27.8°F-2.3°C 52% 4.0 mph WNW6.4 kmh WNW 9.0 mph14.5 kmh 30.30 in1026.1 mb 0.00 in0.0 mm 0.00 in0.0 mm 0.00 in0.0 mm
01:29 PM 44.5°F6.9°C 27.9°F-2.3°C 52% 3.3 mph NW5.3 kmh NW 9.0 mph14.5 kmh 30.30 in1026.1 mb 0.00 in0.0 mm 0.00 in0.0 mm 0.00 in0.0 mm
01:34 PM 44.5°F6.9°C 27.0°F-2.8°C 50% 3.5 mph NNW5.6 kmh NNW 10.0 mph16.1 kmh 30.29 in1025.7 mb 0.00 in0.0 mm 0.00 in0.0 mm 0.00 in0.0 mm
01:39 PM 44.8°F7.1°C 27.7°F-2.4°C 51% 2.3 mph N3.7 kmh N 10.0 mph16.1 kmh 30.29 in1025.7 mb 0.00 in0.0 mm 0.00 in0.0 mm 0.00 in0.0 mm
01:44 PM 44.9°F7.2°C 27.4°F-2.6°C 50% 4.7 mph NW7.6 kmh NW 10.0 mph16.1 kmh 30.29 in1025.7 mb 0.00 in0.0 mm 0.00 in0.0 mm 0.00 in0.0 mm
01:49 PM 44.8°F7.1°C 26.7°F-2.9°C 49% 1.4 mph NW2.3 kmh NW 8.0 mph12.9 kmh 30.29 in1025.7 mb 0.00 in0.0 mm 0.00 in0.0 mm 0.00 in0.0 mm
01:54 PM 45.4°F7.4°C 27.8°F-2.3°C 50% 3.6 mph WNW5.8 kmh WNW 8.0 mph12.9 kmh 30.28 in1025.4 mb 0.00 in0.0 mm 0.00 in0.0 mm 0.00 in0.0 mm
01:58 PM 45.5°F7.5°C 26.3°F-3.2°C 47% 4.7 mph W7.6 kmh W 8.0 mph12.9 kmh 30.28 in1025.4 mb 0.00 in0.0 mm 0.00 in0.0 mm 0.00 in0.0 mm
02:03 PM 45.6°F7.6°C 26.4°F-3.1°C 47% 4.7 mph NW7.6 kmh NW 8.0 mph12.9 kmh 30.27 in1025.1 mb 0.00 in0.0 mm 0.00 in0.0 mm 0.00 in0.0 mm
02:08 PM 45.7°F7.6°C 26.0°F-3.3°C 46% 6.0 mph NW9.7 kmh NW 8.0 mph12.9 kmh 30.27 in1025.1 mb 0.00 in0.0 mm 0.00 in0.0 mm 0.00 in0.0 mm
02:13 PM 45.9°F7.7°C 26.2°F-3.2°C 46% 4.0 mph WNW6.4 kmh WNW 8.0 mph12.9 kmh 30.27 in1025.1 mb 0.00 in0.0 mm 0.00 in0.0 mm 0.00 in0.0 mm
02:18 PM 46.5°F8.1°C 26.7°F-2.9°C 46% 1.6 mph N2.6 kmh N 10.0 mph16.1 kmh 30.27 in1025.1 mb 0.00 in0.0 mm 0.00 in0.0 mm 0.00 in0.0 mm
02:23 PM 46.7°F8.2°C 25.9°F-3.4°C 44% 4.5 mph NW7.2 kmh NW 10.0 mph16.1 kmh 30.27 in1025.1 mb 0.00 in0.0 mm 0.00 in0.0 mm 0.00 in0.0 mm
02:28 PM 47.0°F8.3°C 26.7°F-2.9°C 45% 2.3 mph WNW3.7 kmh WNW 10.0 mph16.1 kmh 30.27 in1025.1 mb 0.00 in0.0 mm 0.00 in0.0 mm 0.00 in0.0 mm
02:33 PM 46.8°F8.2°C 26.5°F-3.1°C 45% 3.6 mph NW5.8 kmh NW 10.0 mph16.1 kmh 30.26 in1024.7 mb 0.00 in0.0 mm 0.00 in0.0 mm 0.00 in0.0 mm
02:38 PM 46.9°F8.3°C 27.1°F-2.7°C 46% 3.0 mph N4.8 kmh N 9.0 mph14.5 kmh 30.26 in1024.7 mb 0.00 in0.0 mm 0.00 in0.0 mm 0.00 in0.0 mm
02:43 PM 47.2°F8.4°C 26.9°F-2.8°C 45% 7.0 mph WNW11.3 kmh WNW 13.0 mph20.9 kmh 30.26 in1024.7 mb 0.00 in0.0 mm 0.00 in0.0 mm 0.00 in0.0 mm
02:48 PM 47.5°F8.6°C 26.5°F-3.1°C 44% 3.8 mph WNW6.1 kmh WNW 13.0 mph20.9 kmh 30.26 in1024.7 mb 0.00 in0.0 mm 0.00 in0.0 mm 0.00 in0.0 mm
02:53 PM 47.9°F8.8°C 25.7°F-3.5°C 42% 5.9 mph NW9.5 kmh NW 15.0 mph24.1 kmh 30.26 in1024.7 mb 0.00 in0.0 mm 0.00 in0.0 mm 0.00 in0.0 mm
02:58 PM 47.7°F8.7°C 25.6°F-3.6°C 42% 5.5 mph WNW8.9 kmh WNW 15.0 mph24.1 kmh 30.26 in1024.7 mb 0.00 in0.0 mm 0.00 in0.0 mm 0.00 in0.0 mm
03:03 PM 47.6°F8.7°C 25.5°F-3.6°C 42% 6.6 mph NW10.6 kmh NW 15.0 mph24.1 kmh 30.26 in1024.7 mb 0.00 in0.0 mm 0.00 in0.0 mm 0.00 in0.0 mm
03:08 PM 47.3°F8.5°C 24.6°F-4.1°C 41% 6.1 mph NW9.8 kmh NW 15.0 mph24.1 kmh 30.26 in1024.7 mb 0.00 in0.0 mm 0.00 in0.0 mm 0.00 in0.0 mm
03:13 PM 48.0°F8.9°C 25.2°F-3.8°C 41% 4.2 mph NW6.8 kmh NW 13.0 mph20.9 kmh 30.25 in1024.4 mb 0.00 in0.0 mm 0.00 in0.0 mm 0.00 in0.0 mm
03:18 PM 48.1°F8.9°C 25.3°F-3.7°C 41% 6.4 mph NW10.3 kmh NW 15.0 mph24.1 kmh 30.26 in1024.7 mb 0.00 in0.0 mm 0.00 in0.0 mm 0.00 in0.0 mm
03:23 PM 48.2°F9.0°C 24.8°F-4.0°C 40% 6.0 mph N9.7 kmh N 15.0 mph24.1 kmh 30.25 in1024.4 mb 0.00 in0.0 mm 0.00 in0.0 mm 0.00 in0.0 mm
03:28 PM 48.3°F9.1°C 26.1°F-3.3°C 42% 4.2 mph NW6.8 kmh NW 15.0 mph24.1 kmh 30.25 in1024.4 mb 0.00 in0.0 mm 0.00 in0.0 mm 0.00 in0.0 mm
03:33 PM 48.5°F9.2°C 25.7°F-3.5°C 41% 3.2 mph NW5.1 kmh NW 15.0 mph24.1 kmh 30.25 in1024.4 mb 0.00 in0.0 mm 0.00 in0.0 mm 0.00 in0.0 mm
03:38 PM 48.5°F9.2°C 25.7°F-3.5°C 41% 4.2 mph N6.8 kmh N 15.0 mph24.1 kmh 30.25 in1024.4 mb 0.00 in0.0 mm 0.00 in0.0 mm 0.00 in0.0 mm
03:43 PM 48.6°F9.2°C 25.3°F-3.7°C 40% 4.4 mph NNW7.1 kmh NNW 11.0 mph17.7 kmh 30.25 in1024.4 mb 0.00 in0.0 mm 0.00 in0.0 mm 0.00 in0.0 mm
03:48 PM 48.7°F9.3°C 25.3°F-3.7°C 40% 5.0 mph WNW8.0 kmh WNW 11.0 mph17.7 kmh 30.25 in1024.4 mb 0.00 in0.0 mm 0.00 in0.0 mm 0.00 in0.0 mm
03:53 PM 48.8°F9.3°C 26.0°F-3.3°C 41% 3.9 mph NNW6.3 kmh NNW 11.0 mph17.7 kmh 30.25 in1024.4 mb 0.00 in0.0 mm 0.00 in0.0 mm 0.00 in0.0 mm
03:58 PM 48.9°F9.4°C 26.0°F-3.3°C 41% 3.7 mph NW6.0 kmh NW 10.0 mph16.1 kmh 30.25 in1024.4 mb 0.00 in0.0 mm 0.00 in0.0 mm 0.00 in0.0 mm
04:03 PM 49.1°F9.5°C 25.6°F-3.6°C 40% 5.0 mph NW8.0 kmh NW 10.0 mph16.1 kmh 30.25 in1024.4 mb 0.00 in0.0 mm 0.00 in0.0 mm 0.00 in0.0 mm
04:09 PM 48.9°F9.4°C 25.6°F-3.6°C 40% 5.3 mph NW8.5 kmh NW 12.0 mph19.3 kmh 30.24 in1024.0 mb 0.00 in0.0 mm 0.00 in0.0 mm 0.00 in0.0 mm
04:13 PM 49.4°F9.7°C 24.6°F-4.1°C 38% 4.4 mph WNW7.1 kmh WNW 12.0 mph19.3 kmh 30.24 in1024.0 mb 0.00 in0.0 mm 0.00 in0.0 mm 0.00 in0.0 mm
04:19 PM 49.5°F9.7°C 24.7°F-4.1°C 38% 5.5 mph WNW8.9 kmh WNW 12.0 mph19.3 kmh 30.25 in1024.4 mb 0.00 in0.0 mm 0.00 in0.0 mm 0.00 in0.0 mm
04:24 PM 49.4°F9.7°C 24.0°F-4.4°C 37% 4.4 mph NW7.1 kmh NW 12.0 mph19.3 kmh 30.25 in1024.4 mb 0.00 in0.0 mm 0.00 in0.0 mm 0.00 in0.0 mm
04:29 PM 49.3°F9.6°C 23.2°F-4.9°C 36% 8.9 mph WNW14.3 kmh WNW 13.0 mph20.9 kmh 30.25 in1024.4 mb 0.00 in0.0 mm 0.00 in0.0 mm 0.00 in0.0 mm
04:34 PM 49.3°F9.6°C 23.9°F-4.5°C 37% 3.8 mph WNW6.1 kmh WNW 13.0 mph20.9 kmh 30.25 in1024.4 mb 0.00 in0.0 mm 0.00 in0.0 mm 0.00 in0.0 mm
04:39 PM 49.4°F9.7°C 24.0°F-4.4°C 37% 4.8 mph WNW7.7 kmh WNW 13.0 mph20.9 kmh 30.25 in1024.4 mb 0.00 in0.0 mm 0.00 in0.0 mm 0.00 in0.0 mm
04:44 PM 49.4°F9.7°C 23.5°F-4.7°C 36% 5.2 mph NW8.4 kmh NW 13.0 mph20.9 kmh 30.25 in1024.4 mb 0.00 in0.0 mm 0.00 in0.0 mm 0.00 in0.0 mm
04:49 PM 49.5°F9.7°C 22.9°F-5.1°C 35% 4.1 mph NW6.6 kmh NW 12.0 mph19.3 kmh 30.25 in1024.4 mb 0.00 in0.0 mm 0.00 in0.0 mm 0.00 in0.0 mm
04:54 PM 49.3°F9.6°C 23.2°F-4.9°C 36% 5.1 mph NNW8.2 kmh NNW 12.0 mph19.3 kmh 30.25 in1024.4 mb 0.00 in0.0 mm 0.00 in0.0 mm 0.00 in0.0 mm
04:59 PM 49.1°F9.5°C 21.7°F-5.7°C 34% 5.8 mph NNW9.3 kmh NNW 14.0 mph22.5 kmh 30.25 in1024.4 mb 0.00 in0.0 mm 0.00 in0.0 mm 0.00 in0.0 mm
05:04 PM 48.9°F9.4°C 22.2°F-5.4°C 35% 6.2 mph NW10.0 kmh NW 14.0 mph22.5 kmh 30.25 in1024.4 mb 0.00 in0.0 mm 0.00 in0.0 mm 0.00 in0.0 mm
05:09 PM 48.9°F9.4°C 22.2°F-5.4°C 35% 4.8 mph NNW7.7 kmh NNW 14.0 mph22.5 kmh 30.25 in1024.4 mb 0.00 in0.0 mm 0.00 in0.0 mm 0.00 in0.0 mm
05:14 PM 49.1°F9.5°C 23.1°F-4.9°C 36% 5.2 mph NW8.4 kmh NW 14.0 mph22.5 kmh 30.25 in1024.4 mb 0.00 in0.0 mm 0.00 in0.0 mm 0.00 in0.0 mm
05:19 PM 48.9°F9.4°C 22.4°F-5.3°C 35% 5.6 mph NW9.0 kmh NW 14.0 mph22.5 kmh 30.25 in1024.4 mb 0.00 in0.0 mm 0.00 in0.0 mm 0.00 in0.0 mm
05:24 PM 49.0°F9.4°C 22.3°F-5.4°C 35% 4.5 mph WNW7.2 kmh WNW 12.0 mph19.3 kmh 30.25 in1024.4 mb 0.00 in0.0 mm 0.00 in0.0 mm 0.00 in0.0 mm
05:29 PM 49.0°F9.4°C 23.8°F-4.6°C 37% 2.4 mph NW3.9 kmh NW 12.0 mph19.3 kmh 30.25 in1024.4 mb 0.00 in0.0 mm 0.00 in0.0 mm 0.00 in0.0 mm
05:34 PM 49.0°F9.4°C 23.0°F-5.0°C 36% 1.9 mph NW3.1 kmh NW 11.0 mph17.7 kmh 30.25 in1024.4 mb 0.00 in0.0 mm 0.00 in0.0 mm 0.00 in0.0 mm
05:39 PM 49.0°F9.4°C 23.6°F-4.7°C 37% 3.6 mph NW5.8 kmh NW 11.0 mph17.7 kmh 30.25 in1024.4 mb 0.00 in0.0 mm 0.00 in0.0 mm 0.00 in0.0 mm
05:44 PM 48.8°F9.3°C 23.4°F-4.8°C 37% 2.6 mph WNW4.2 kmh WNW 8.0 mph12.9 kmh 30.25 in1024.4 mb 0.00 in0.0 mm 0.00 in0.0 mm 0.00 in0.0 mm
05:49 PM 48.7°F9.3°C 23.4°F-4.8°C 37% 1.8 mph NW2.9 kmh NW 8.0 mph12.9 kmh 30.25 in1024.4 mb 0.00 in0.0 mm 0.00 in0.0 mm 0.00 in0.0 mm
05:54 PM 48.5°F9.2°C 23.2°F-4.9°C 37% 2.2 mph N3.5 kmh N 7.0 mph11.3 kmh 30.25 in1024.4 mb 0.00 in0.0 mm 0.00 in0.0 mm 0.00 in0.0 mm
05:59 PM 48.5°F9.2°C 22.5°F-5.3°C 36% 3.7 mph NW6.0 kmh NW 7.0 mph11.3 kmh 30.25 in1024.4 mb 0.00 in0.0 mm 0.00 in0.0 mm 0.00 in0.0 mm
06:04 PM 48.5°F9.2°C 22.5°F-5.3°C 36% 2.4 mph NW3.9 kmh NW 7.0 mph11.3 kmh 30.25 in1024.4 mb 0.00 in0.0 mm 0.00 in0.0 mm 0.00 in0.0 mm
06:09 PM 48.5°F9.2°C 23.8°F-4.6°C 38% 3.1 mph N5.0 kmh N 9.0 mph14.5 kmh 30.25 in1024.4 mb 0.00 in0.0 mm 0.00 in0.0 mm 0.00 in0.0 mm
06:14 PM 48.3°F9.1°C 23.0°F-5.0°C 37% 3.5 mph NW5.6 kmh NW 10.0 mph16.1 kmh 30.25 in1024.4 mb 0.00 in0.0 mm 0.00 in0.0 mm 0.00 in0.0 mm
06:19 PM 48.3°F9.1°C 22.3°F-5.4°C 36% 4.4 mph NW7.1 kmh NW 10.0 mph16.1 kmh 30.25 in1024.4 mb 0.00 in0.0 mm 0.00 in0.0 mm 0.00 in0.0 mm
06:24 PM 48.3°F9.1°C 22.3°F-5.4°C 36% 3.4 mph NNW5.5 kmh NNW 10.0 mph16.1 kmh 30.25 in1024.4 mb 0.00 in0.0 mm 0.00 in0.0 mm 0.00 in0.0 mm
06:29 PM 48.2°F9.0°C 22.9°F-5.1°C 37% 1.9 mph NNW3.1 kmh NNW 10.0 mph16.1 kmh 30.25 in1024.4 mb 0.00 in0.0 mm 0.00 in0.0 mm 0.00 in0.0 mm
06:34 PM 48.3°F9.1°C 23.0°F-5.0°C 37% 1.0 mph WNW1.6 kmh WNW 9.0 mph14.5 kmh 30.25 in1024.4 mb 0.00 in0.0 mm 0.00 in0.0 mm 0.00 in0.0 mm
06:39 PM 48.1°F8.9°C 23.0°F-5.0°C 37% 4.1 mph WNW6.6 kmh WNW 9.0 mph14.5 kmh 30.25 in1024.4 mb 0.00 in0.0 mm 0.00 in0.0 mm 0.00 in0.0 mm
06:44 PM 47.8°F8.8°C 23.2°F-4.9°C 38% 2.3 mph WNW3.7 kmh WNW 9.0 mph14.5 kmh 30.25 in1024.4 mb 0.00 in0.0 mm 0.00 in0.0 mm 0.00 in0.0 mm
06:49 PM 47.6°F8.7°C 23.0°F-5.0°C 38% 1.6 mph WNW2.6 kmh WNW 9.0 mph14.5 kmh 30.25 in1024.4 mb 0.00 in0.0 mm 0.00 in0.0 mm 0.00 in0.0 mm
06:54 PM 47.3°F8.5°C 22.8°F-5.1°C 38% 1.6 mph NW2.6 kmh NW 9.0 mph14.5 kmh 30.25 in1024.4 mb 0.00 in0.0 mm 0.00 in0.0 mm 0.00 in0.0 mm
06:58 PM 47.1°F8.4°C 22.6°F-5.2°C 38% 3.3 mph WNW5.3 kmh WNW 6.0 mph9.7 kmh 30.25 in1024.4 mb 0.00 in0.0 mm 0.00 in0.0 mm 0.00 in0.0 mm
07:03 PM 46.9°F8.3°C 23.0°F-5.0°C 39% 2.2 mph WNW3.5 kmh WNW 6.0 mph9.7 kmh 30.25 in1024.4 mb 0.00 in0.0 mm 0.00 in0.0 mm 0.00 in0.0 mm
07:08 PM 46.7°F8.2°C 22.8°F-5.1°C 39% 1.2 mph WNW1.9 kmh WNW 6.0 mph9.7 kmh 30.26 in1024.7 mb 0.00 in0.0 mm 0.00 in0.0 mm 0.00 in0.0 mm
07:13 PM 46.4°F8.0°C 23.2°F-4.9°C 40% 1.3 mph WNW2.1 kmh WNW 6.0 mph9.7 kmh 30.26 in1024.7 mb 0.00 in0.0 mm 0.00 in0.0 mm 0.00 in0.0 mm
07:18 PM 46.1°F7.8°C 23.5°F-4.7°C 41% 1.0 mph WNW1.6 kmh WNW 4.0 mph6.4 kmh 30.26 in1024.7 mb 0.00 in0.0 mm 0.00 in0.0 mm 0.00 in0.0 mm
07:23 PM 45.9°F7.7°C 23.3°F-4.8°C 41% 1.0 mph W1.6 kmh W 3.0 mph4.8 kmh 30.26 in1024.7 mb 0.00 in0.0 mm 0.00 in0.0 mm 0.00 in0.0 mm
07:28 PM 45.6°F7.6°C 23.7°F-4.6°C 42% 1.0 mph W1.6 kmh W 3.0 mph4.8 kmh 30.26 in1024.7 mb 0.00 in0.0 mm 0.00 in0.0 mm 0.00 in0.0 mm
07:33 PM 45.5°F7.5°C 23.7°F-4.6°C 42% 1.0 mph W1.6 kmh W 2.0 mph3.2 kmh 30.26 in1024.7 mb 0.00 in0.0 mm 0.00 in0.0 mm 0.00 in0.0 mm
07:38 PM 45.3°F7.4°C 23.4°F-4.8°C 42% 1.4 mph WNW2.3 kmh WNW 2.0 mph3.2 kmh 30.26 in1024.7 mb 0.00 in0.0 mm 0.00 in0.0 mm 0.00 in0.0 mm
07:43 PM 45.0°F7.2°C 23.1°F-4.9°C 42% 1.0 mph WNW1.6 kmh WNW 2.0 mph3.2 kmh 30.26 in1024.7 mb 0.00 in0.0 mm 0.00 in0.0 mm 0.00 in0.0 mm
07:48 PM 44.9°F7.2°C 23.2°F-4.9°C 42% 1.0 mph W1.6 kmh W 2.0 mph3.2 kmh 30.26 in1024.7 mb 0.00 in0.0 mm 0.00 in0.0 mm 0.00 in0.0 mm
07:53 PM 44.8°F7.1°C 22.9°F-5.1°C 42% 1.0 mph W1.6 kmh W 2.0 mph3.2 kmh 30.27 in1025.1 mb 0.00 in0.0 mm 0.00 in0.0 mm 0.00 in0.0 mm
07:58 PM 44.6°F7.0°C 22.7°F-5.2°C 42% 1.0 mph W1.6 kmh W 2.0 mph3.2 kmh 30.27 in1025.1 mb 0.00 in0.0 mm 0.00 in0.0 mm 0.00 in0.0 mm
08:03 PM 44.5°F6.9°C 22.7°F-5.2°C 42% 1.0 mph WNW1.6 kmh WNW 2.0 mph3.2 kmh 30.27 in1025.1 mb 0.00 in0.0 mm 0.00 in0.0 mm 0.00 in0.0 mm
08:08 PM 44.5°F6.9°C 22.7°F-5.2°C 42% 1.2 mph WNW1.9 kmh WNW 2.0 mph3.2 kmh 30.27 in1025.1 mb 0.00 in0.0 mm 0.00 in0.0 mm 0.00 in0.0 mm
08:13 PM 44.2°F6.8°C 23.0°F-5.0°C 43% 1.0 mph NW1.6 kmh NW 2.0 mph3.2 kmh 30.27 in1025.1 mb 0.00 in0.0 mm 0.00 in0.0 mm 0.00 in0.0 mm
08:18 PM 44.0°F6.7°C 23.3°F-4.8°C 44% 1.4 mph WNW2.3 kmh WNW 2.0 mph3.2 kmh 30.27 in1025.1 mb 0.00 in0.0 mm 0.00 in0.0 mm 0.00 in0.0 mm
08:23 PM 43.9°F6.6°C 23.2°F-4.9°C 44% 1.5 mph WNW2.4 kmh WNW 4.0 mph6.4 kmh 30.27 in1025.1 mb 0.00 in0.0 mm 0.00 in0.0 mm 0.00 in0.0 mm
08:28 PM 43.8°F6.6°C 23.2°F-4.9°C 44% 1.6 mph WNW2.6 kmh WNW 4.0 mph6.4 kmh 30.27 in1025.1 mb 0.00 in0.0 mm 0.00 in0.0 mm 0.00 in0.0 mm
08:33 PM 43.7°F6.5°C 23.1°F-4.9°C 44% 1.7 mph WNW2.7 kmh WNW 4.0 mph6.4 kmh 30.27 in1025.1 mb 0.00 in0.0 mm 0.00 in0.0 mm 0.00 in0.0 mm
08:38 PM 43.6°F6.4°C 23.0°F-5.0°C 44% 1.1 mph W1.8 kmh W 4.0 mph6.4 kmh 30.28 in1025.4 mb 0.00 in0.0 mm 0.00 in0.0 mm 0.00 in0.0 mm
08:43 PM 43.5°F6.4°C 22.3°F-5.4°C 43% 1.2 mph NW1.9 kmh NW 4.0 mph6.4 kmh 30.28 in1025.4 mb 0.00 in0.0 mm 0.00 in0.0 mm 0.00 in0.0 mm
08:48 PM 43.4°F6.3°C 22.2°F-5.4°C 43% 1.1 mph WNW1.8 kmh WNW 4.0 mph6.4 kmh 30.28 in1025.4 mb 0.00 in0.0 mm 0.00 in0.0 mm 0.00 in0.0 mm
08:53 PM 43.3°F6.3°C 22.1°F-5.5°C 43% 1.1 mph NW1.8 kmh NW 3.0 mph4.8 kmh 30.28 in1025.4 mb 0.00 in0.0 mm 0.00 in0.0 mm 0.00 in0.0 mm
08:58 PM 43.2°F6.2°C 22.0°F-5.6°C 43% 1.1 mph NW1.8 kmh NW 3.0 mph4.8 kmh 30.28 in1025.4 mb 0.00 in0.0 mm 0.00 in0.0 mm 0.00 in0.0 mm
09:03 PM 42.9°F6.1°C 22.3°F-5.4°C 44% 1.4 mph WNW2.3 kmh WNW 3.0 mph4.8 kmh 30.29 in1025.7 mb 0.00 in0.0 mm 0.00 in0.0 mm 0.00 in0.0 mm
09:08 PM 42.7°F5.9°C 22.2°F-5.4°C 44% 1.0 mph WNW1.6 kmh WNW 3.0 mph4.8 kmh 30.29 in1025.7 mb 0.00 in0.0 mm 0.00 in0.0 mm 0.00 in0.0 mm
09:13 PM 42.5°F5.8°C 22.0°F-5.6°C 44% 1.2 mph WNW1.9 kmh WNW 3.0 mph4.8 kmh 30.29 in1025.7 mb 0.00 in0.0 mm 0.00 in0.0 mm 0.00 in0.0 mm
09:18 PM 42.5°F5.8°C 22.0°F-5.6°C 44% 1.5 mph WNW2.4 kmh WNW 3.0 mph4.8 kmh 30.29 in1025.7 mb 0.00 in0.0 mm 0.00 in0.0 mm 0.00 in0.0 mm
09:23 PM 42.3°F5.7°C 21.8°F-5.7°C 44% 2.0 mph NW3.2 kmh NW 4.0 mph6.4 kmh 30.29 in1025.7 mb 0.00 in0.0 mm 0.00 in0.0 mm 0.00 in0.0 mm
09:28 PM 42.1°F5.6°C 21.6°F-5.8°C 44% 1.4 mph NW2.3 kmh NW 4.0 mph6.4 kmh 30.29 in1025.7 mb 0.00 in0.0 mm 0.00 in0.0 mm 0.00 in0.0 mm
09:33 PM 41.8°F5.4°C 21.3°F-5.9°C 44% 1.2 mph NW1.9 kmh NW 4.0 mph6.4 kmh 30.29 in1025.7 mb 0.00 in0.0 mm 0.00 in0.0 mm 0.00 in0.0 mm
09:38 PM 41.7°F5.4°C 21.2°F-6.0°C 44% 1.5 mph WNW2.4 kmh WNW 4.0 mph6.4 kmh 30.29 in1025.7 mb 0.00 in0.0 mm 0.00 in0.0 mm 0.00 in0.0 mm
09:43 PM 41.7°F5.4°C 21.4°F-5.9°C 44% 1.3 mph WNW2.1 kmh WNW 3.0 mph4.8 kmh 30.30 in1026.1 mb 0.00 in0.0 mm 0.00 in0.0 mm 0.00 in0.0 mm
09:48 PM 41.6°F5.3°C 21.7°F-5.7°C 45% 1.4 mph W2.3 kmh W 3.0 mph4.8 kmh 30.30 in1026.1 mb 0.00 in0.0 mm 0.00 in0.0 mm 0.00 in0.0 mm
09:53 PM 41.5°F5.3°C 21.1°F-6.1°C 44% 1.2 mph W1.9 kmh W 3.0 mph4.8 kmh 30.30 in1026.1 mb 0.00 in0.0 mm 0.00 in0.0 mm 0.00 in0.0 mm
09:58 PM 41.3°F5.2°C 20.9°F-6.2°C 44% 1.5 mph WNW2.4 kmh WNW 3.0 mph4.8 kmh 30.30 in1026.1 mb 0.00 in0.0 mm 0.00 in0.0 mm 0.00 in0.0 mm
10:03 PM 41.2°F5.1°C 20.4°F-6.4°C 43% 2.0 mph WNW3.2 kmh WNW 3.0 mph4.8 kmh 30.30 in1026.1 mb 0.00 in0.0 mm 0.00 in0.0 mm 0.00 in0.0 mm
10:08 PM 41.0°F5.0°C 20.6°F-6.3°C 44% 1.7 mph WNW2.7 kmh WNW 3.0 mph4.8 kmh 30.30 in1026.1 mb 0.00 in0.0 mm 0.00 in0.0 mm 0.00 in0.0 mm
10:13 PM 40.6°F4.8°C 20.2°F-6.6°C 44% 1.4 mph WNW2.3 kmh WNW 3.0 mph4.8 kmh 30.30 in1026.1 mb 0.00 in0.0 mm 0.00 in0.0 mm 0.00 in0.0 mm
10:18 PM 40.4°F4.7°C 20.7°F-6.3°C 45% 1.7 mph WNW2.7 kmh WNW 4.0 mph6.4 kmh 30.30 in1026.1 mb 0.00 in0.0 mm 0.00 in0.0 mm 0.00 in0.0 mm
10:23 PM 40.3°F4.6°C 20.0°F-6.7°C 44% 1.6 mph W2.6 kmh W 4.0 mph6.4 kmh 30.31 in1026.4 mb 0.00 in0.0 mm 0.00 in0.0 mm 0.00 in0.0 mm
10:28 PM 40.2°F4.6°C 19.9°F-6.7°C 44% 1.4 mph WNW2.3 kmh WNW 4.0 mph6.4 kmh 30.30 in1026.1 mb 0.00 in0.0 mm 0.00 in0.0 mm 0.00 in0.0 mm
10:33 PM 40.2°F4.6°C 19.3°F-7.1°C 43% 1.8 mph W2.9 kmh W 4.0 mph6.4 kmh 30.31 in1026.4 mb 0.00 in0.0 mm 0.00 in0.0 mm 0.00 in0.0 mm
10:38 PM 40.1°F4.5°C 19.9°F-6.7°C 44% 2.0 mph W3.2 kmh W 4.0 mph6.4 kmh 30.31 in1026.4 mb 0.00 in0.0 mm 0.00 in0.0 mm 0.00 in0.0 mm
10:43 PM 40.0°F4.4°C 19.7°F-6.8°C 44% 2.1 mph W3.4 kmh W 5.0 mph8.0 kmh 30.32 in1026.8 mb 0.00 in0.0 mm 0.00 in0.0 mm 0.00 in0.0 mm
10:48 PM 39.9°F4.4°C 20.1°F-6.6°C 45% 2.1 mph WNW3.4 kmh WNW 5.0 mph8.0 kmh 30.32 in1026.8 mb 0.00 in0.0 mm 0.00 in0.0 mm 0.00 in0.0 mm
10:53 PM 39.8°F4.3°C 20.0°F-6.7°C 45% 2.4 mph WNW3.9 kmh WNW 6.0 mph9.7 kmh 30.32 in1026.8 mb 0.00 in0.0 mm 0.00 in0.0 mm 0.00 in0.0 mm
10:58 PM 39.5°F4.2°C 19.8°F-6.8°C 45% 1.9 mph WNW3.1 kmh WNW 6.0 mph9.7 kmh 30.32 in1026.8 mb 0.00 in0.0 mm 0.00 in0.0 mm 0.00 in0.0 mm
11:03 PM 39.3°F4.1°C 19.6°F-6.9°C 45% 2.2 mph WNW3.5 kmh WNW 6.0 mph9.7 kmh 30.32 in1026.8 mb 0.00 in0.0 mm 0.00 in0.0 mm 0.00 in0.0 mm
11:08 PM 39.2°F4.0°C 19.5°F-6.9°C 45% 2.7 mph W4.3 kmh W 6.0 mph9.7 kmh 30.32 in1026.8 mb 0.00 in0.0 mm 0.00 in0.0 mm 0.00 in0.0 mm
11:13 PM 39.1°F3.9°C 19.9°F-6.7°C 46% 3.0 mph WNW4.8 kmh WNW 5.0 mph8.0 kmh 30.32 in1026.8 mb 0.00 in0.0 mm 0.00 in0.0 mm 0.00 in0.0 mm
11:18 PM 39.1°F3.9°C 19.9°F-6.7°C 46% 2.7 mph WNW4.3 kmh WNW 5.0 mph8.0 kmh 30.32 in1026.8 mb 0.00 in0.0 mm 0.00 in0.0 mm 0.00 in0.0 mm
11:23 PM 39.1°F3.9°C 19.9°F-6.7°C 46% 2.1 mph WNW3.4 kmh WNW 5.0 mph8.0 kmh 30.32 in1026.8 mb 0.00 in0.0 mm 0.00 in0.0 mm 0.00 in0.0 mm
11:28 PM 39.2°F4.0°C 19.5°F-6.9°C 45% 2.1 mph WNW3.4 kmh WNW 6.0 mph9.7 kmh 30.32 in1026.8 mb 0.00 in0.0 mm 0.00 in0.0 mm 0.00 in0.0 mm
11:33 PM 39.2°F4.0°C 19.5°F-6.9°C 45% 2.5 mph WNW4.0 kmh WNW 6.0 mph9.7 kmh 30.32 in1026.8 mb 0.00 in0.0 mm 0.00 in0.0 mm 0.00 in0.0 mm
11:38 PM 39.2°F4.0°C 19.5°F-6.9°C 45% 2.1 mph WNW3.4 kmh WNW 6.0 mph9.7 kmh 30.32 in1026.8 mb 0.00 in0.0 mm 0.00 in0.0 mm 0.00 in0.0 mm
11:43 PM 39.1°F3.9°C 19.4°F-7.0°C 45% 1.8 mph WNW2.9 kmh WNW 6.0 mph9.7 kmh 30.32 in1026.8 mb 0.00 in0.0 mm 0.00 in0.0 mm 0.00 in0.0 mm
11:48 PM 39.1°F3.9°C 19.9°F-6.7°C 46% 1.9 mph W3.1 kmh W 5.0 mph8.0 kmh 30.32 in1026.8 mb 0.00 in0.0 mm 0.00 in0.0 mm 0.00 in0.0 mm
11:53 PM 39.0°F3.9°C 19.8°F-6.8°C 46% 1.9 mph W3.1 kmh W 4.0 mph6.4 kmh 30.32 in1026.8 mb 0.00 in0.0 mm 0.00 in0.0 mm 0.00 in0.0 mm
11:57 PM 38.9°F3.8°C 19.9°F-6.7°C 46% 2.3 mph WNW3.7 kmh WNW 4.0 mph6.4 kmh 30.32 in1026.8 mb 0.00 in0.0 mm 0.00 in0.0 mm 0.00 in0.0 mm